Time;durP1;ratioP1;P1;durP2;ratioP2;P2;SDS_P1;SDS_P2;PMS_P1;PMS_P2;Temp;Humidity;BMP_temperature;BMP_pressure;BME280_temperature;BME280_humidity;BME280_pressure;Samples;Min_cycle;Max_cycle;Signal;HPM_P1;HPM_P2
2021/05/17 00:00:45;;;;;;;5.87;3.45;;;;;;;14.95;75.57;99157.52;1731880;82;21550;-73
2021/05/17 00:03:13;;;;;;;6.70;3.80;;;;;;;14.87;75.88;99151.78;1727454;82;21106;-73
2021/05/17 00:05:40;;;;;;;7.28;3.35;;;;;;;14.84;76.16;99153.45;1685969;84;21476;-73
2021/05/17 00:08:08;;;;;;;8.43;3.10;;;;;;;14.84;76.58;99148.14;1706108;84;21051;-73
2021/05/17 00:10:35;;;;;;;6.22;2.65;;;;;;;14.77;76.88;99141.91;1706016;83;21780;-73
2021/05/17 00:13:02;;;;;;;5.08;2.70;;;;;;;14.71;76.98;99155.89;1705958;82;20994;-73
2021/05/17 00:15:29;;;;;;;9.30;3.20;;;;;;;14.68;77.05;99154.11;1706236;82;21007;-72
2021/05/17 00:17:56;;;;;;;5.15;2.72;;;;;;;14.66;77.03;99156.91;1706025;82;21054;-73
2021/05/17 00:20:25;;;;;;;9.28;3.30;;;;;;;14.69;76.91;99163.23;1706929;82;21031;-72
2021/05/17 00:22:53;;;;;;;5.72;2.80;;;;;;;14.71;76.81;99176.33;1705798;83;22892;-73
2021/05/17 00:25:25;;;;;;;7.42;2.65;;;;;;;14.72;76.75;99188.11;1707480;82;20991;-72
2021/05/17 00:30:32;;;;;;;6.60;2.77;;;;;;;14.78;76.47;99196.72;1750652;82;21491;-73
2021/05/17 00:32:58;;;;;;;8.00;2.95;;;;;;;14.77;76.52;99207.03;1743536;82;21066;-73
2021/05/17 00:35:25;;;;;;;4.20;2.60;;;;;;;14.75;76.59;99211.67;1722083;83;21788;-73
2021/05/17 00:37:52;;;;;;;5.20;2.83;;;;;;;14.72;76.59;99213.86;1722612;82;20948;-72
2021/05/17 00:40:20;;;;;;;7.22;2.92;;;;;;;14.76;76.58;99213.32;1722146;83;20960;-73
2021/05/17 00:42:50;;;;;;;4.95;2.70;;;;;;;14.78;76.56;99210.00;1722123;83;21044;-72
2021/05/17 00:45:18;;;;;;;7.03;2.90;;;;;;;14.80;76.68;99211.98;1722173;83;21557;-72
2021/05/17 00:47:48;;;;;;;5.33;2.40;;;;;;;14.78;76.71;99222.47;1721880;83;21772;-73
2021/05/17 00:50:18;;;;;;;5.95;2.90;;;;;;;14.80;76.75;99237.73;1717420;83;21016;-73
2021/05/17 00:52:45;;;;;;;4.10;2.55;;;;;;;14.78;76.79;99243.23;1722165;83;21036;-73
2021/05/17 00:55:15;;;;;;;7.80;2.92;;;;;;;14.80;76.92;99257.67;1722569;82;20972;-72
2021/05/17 00:57:43;;;;;;;5.12;2.50;;;;;;;14.79;77.14;99264.00;1722194;83;20953;-73
2021/05/17 01:00:15;;;;;;;3.02;1.80;;;;;;;14.77;77.48;99287.27;1721997;83;21834;-72
2021/05/17 01:02:43;;;;;;;5.10;2.37;;;;;;;14.73;77.78;99289.44;1721086;83;29065;-72
2021/05/17 01:05:13;;;;;;;9.55;2.52;;;;;;;14.70;77.88;99295.61;1721260;83;20956;-72
2021/05/17 01:07:49;;;;;;;5.08;2.15;;;;;;;14.69;78.02;99300.60;1722109;83;20992;-73
2021/05/17 01:10:18;;;;;;;5.87;2.42;;;;;;;14.69;78.20;99290.80;1722057;83;21015;-72
2021/05/17 01:12:47;;;;;;;5.58;2.10;;;;;;;14.68;78.23;99287.82;1741051;81;21780;-72
2021/05/17 01:15:17;;;;;;;4.92;2.05;;;;;;;14.71;78.31;99276.00;1716099;83;20998;-72
2021/05/17 01:17:44;;;;;;;6.30;2.20;;;;;;;14.70;78.50;99241.95;1715899;83;21028;-72
2021/05/17 01:20:15;;;;;;;5.65;2.58;;;;;;;14.66;78.81;99207.91;1711504;83;21572;-72
2021/05/17 01:23:01;;;;;;;9.33;2.92;;;;;;;14.56;79.03;99206.31;1716343;83;20991;-72
2021/05/17 01:25:25;;;;;;;4.22;2.37;;;;;;;14.52;79.21;99245.38;1716049;83;22018;-72
2021/05/17 01:27:53;;;;;;;5.25;2.65;;;;;;;14.48;79.48;99274.64;1717967;83;21101;-72
2021/05/17 01:30:22;;;;;;;6.53;3.17;;;;;;;14.43;79.62;99279.09;1730125;82;21012;-72
2021/05/17 01:32:51;;;;;;;6.53;3.05;;;;;;;14.40;79.79;99273.31;1734024;82;21055;-72
2021/05/17 01:35:19;;;;;;;6.83;3.02;;;;;;;14.38;79.88;99243.41;1747514;82;21034;-72
2021/05/17 01:37:46;;;;;;;5.42;2.75;;;;;;;14.39;80.03;99243.77;1747291;82;22324;-72
2021/05/17 01:40:19;;;;;;;6.05;3.35;;;;;;;14.41;80.05;99243.91;1747398;82;21047;-72
2021/05/17 01:42:46;;;;;;;7.83;3.40;;;;;;;14.46;80.11;99216.34;1747559;82;21039;-72
2021/05/17 01:45:13;;;;;;;7.03;3.60;;;;;;;14.47;80.11;99230.45;1747538;81;21007;-72
2021/05/17 01:47:42;;;;;;;5.22;3.40;;;;;;;14.47;80.21;99251.70;1744386;82;21011;-72
2021/05/17 01:50:12;;;;;;;5.30;3.15;;;;;;;14.50;80.21;99254.86;1747364;82;22517;-72
2021/05/17 01:52:39;;;;;;;4.83;3.10;;;;;;;14.53;80.24;99233.24;1747304;82;21098;-72
2021/05/17 01:55:08;;;;;;;6.87;2.98;;;;;;;14.51;80.39;99168.83;1747543;82;21101;-72
2021/05/17 01:57:35;;;;;;;6.10;2.80;;;;;;;14.44;80.54;99063.41;1747392;81;21575;-72
2021/05/17 02:00:05;;;;;;;7.15;2.95;;;;;;;14.29;80.90;98916.79;1747488;82;20993;-71
2021/05/17 02:02:35;;;;;;;6.58;2.90;;;;;;;14.08;81.07;98822.38;1749443;81;22373;-72
2021/05/17 02:05:02;;;;;;;5.83;2.50;;;;;;;13.94;81.23;98869.66;1730512;82;21047;-72
2021/05/17 02:07:29;;;;;;;5.92;2.30;;;;;;;13.87;81.35;98961.11;1747973;82;21416;-72
2021/05/17 02:09:55;;;;;;;5.62;2.30;;;;;;;13.83;81.33;99011.58;1747311;81;21561;-72
2021/05/17 02:12:23;;;;;;;3.85;2.08;;;;;;;13.85;81.28;99055.19;1744801;82;21053;-72
2021/05/17 02:14:54;;;;;;;3.20;2.22;;;;;;;13.87;81.18;99079.72;1746666;82;21774;-72
2021/05/17 02:17:23;;;;;;;4.67;2.52;;;;;;;13.89;81.09;99053.32;1747471;82;20991;-72
2021/05/17 02:19:50;;;;;;;6.17;2.90;;;;;;;13.90;81.03;99036.42;1750120;80;21001;-72
2021/05/17 02:22:21;;;;;;;4.55;2.40;;;;;;;13.92;81.00;99029.10;1733686;82;21039;-72
2021/05/17 02:24:52;;;;;;;6.75;2.30;;;;;;;13.92;80.96;99019.81;1731816;81;21079;-72
2021/05/17 02:27:20;;;;;;;3.77;2.30;;;;;;;13.90;80.92;99011.20;1719058;83;21792;-72
2021/05/17 02:29:47;;;;;;;7.55;2.10;;;;;;;13.89;80.89;99008.70;1733052;82;21049;-72
2021/05/17 02:32:21;;;;;;;3.60;2.42;;;;;;;13.90;80.88;98995.78;1731610;82;21112;-72
2021/05/17 02:34:50;;;;;;;4.20;2.30;;;;;;;13.87;80.86;98969.57;1702089;82;21005;-72
2021/05/17 02:37:18;;;;;;;7.47;2.58;;;;;;;13.85;80.95;98954.33;1736566;81;21054;-72
2021/05/17 02:39:45;;;;;;;4.90;2.67;;;;;;;13.79;81.03;98975.75;1731616;82;21780;-72
2021/05/17 02:42:17;;;;;;;6.47;3.10;;;;;;;13.79;81.02;98952.38;1731455;82;20982;-72
2021/05/17 02:44:44;;;;;;;5.58;2.67;;;;;;;13.78;81.17;98929.50;1730854;82;21018;-72
2021/05/17 02:47:12;;;;;;;3.10;2.50;;;;;;;13.75;81.17;98928.03;1731655;82;21041;-72
2021/05/17 02:49:39;;;;;;;4.12;2.65;;;;;;;13.74;81.16;98920.58;1731536;82;21073;-72
2021/05/17 02:52:07;;;;;;;4.40;2.87;;;;;;;13.75;81.22;98904.15;1731661;82;21811;-72
2021/05/17 02:54:39;;;;;;;5.50;2.90;;;;;;;13.74;81.23;98895.87;1742053;82;21468;-72
2021/05/17 02:57:13;;;;;;;4.67;3.33;;;;;;;13.75;81.21;98906.30;1717494;82;21029;-72
2021/05/17 03:00:08;;;;;;;6.10;2.90;;;;;;;13.78;81.21;98906.94;1730655;82;21007;-72
2021/05/17 03:02:55;;;;;;;6.40;3.12;;;;;;;13.80;81.22;98912.89;1746944;82;21506;-72
2021/05/17 03:05:22;;;;;;;5.90;3.17;;;;;;;13.80;81.21;98911.09;1744919;82;22463;-72
2021/05/17 03:07:54;;;;;;;3.90;2.85;;;;;;;13.81;81.28;98903.95;1744477;82;21029;-72
2021/05/17 03:10:21;;;;;;;5.45;3.00;;;;;;;13.82;81.33;98899.79;1744790;82;21025;-72
2021/05/17 03:12:47;;;;;;;6.15;3.40;;;;;;;13.84;81.35;98908.89;1717819;82;21599;-72
2021/05/17 03:15:14;;;;;;;5.45;2.92;;;;;;;13.85;81.44;98917.17;1730600;83;20979;-72
2021/05/17 03:17:42;;;;;;;6.45;3.20;;;;;;;13.86;81.46;98925.46;1746852;82;22477;-72
2021/05/17 03:20:09;;;;;;;5.05;2.98;;;;;;;13.91;81.49;98929.75;1723389;83;21036;-72
2021/05/17 03:22:36;;;;;;;5.03;3.20;;;;;;;13.95;81.47;98923.89;1744409;82;21101;-72
2021/05/17 03:25:05;;;;;;;5.53;2.67;;;;;;;13.98;81.43;98916.06;1744488;82;20998;-72
2021/05/17 03:27:32;;;;;;;5.03;3.17;;;;;;;13.99;81.38;98921.22;1720055;82;21005;-73
2021/05/17 03:29:59;;;;;;;5.50;2.85;;;;;;;14.01;81.34;98934.30;1689288;85;22383;-72
2021/05/17 03:32:26;;;;;;;4.90;2.83;;;;;;;14.03;81.33;98933.63;1689147;85;21086;-72
2021/05/17 03:34:53;;;;;;;4.28;2.90;;;;;;;14.03;81.29;98942.91;1730936;82;20982;-73
2021/05/17 03:37:19;;;;;;;3.60;2.42;;;;;;;14.06;81.27;98938.56;1730792;82;21046;-72
2021/05/17 03:39:47;;;;;;;4.53;2.72;;;;;;;14.08;81.26;98933.89;1749649;82;21031;-72
2021/05/17 03:42:13;;;;;;;4.10;2.62;;;;;;;14.08;81.17;98937.05;1749561;81;23547;-72
2021/05/17 03:44:40;;;;;;;4.22;2.62;;;;;;;14.08;81.12;98931.73;1744297;81;20979;-72
2021/05/17 03:47:07;;;;;;;5.35;2.33;;;;;;;14.08;81.10;98923.78;1746808;82;21054;-72
2021/05/17 03:49:33;;;;;;;4.87;2.85;;;;;;;14.07;81.14;98914.16;1727549;83;21105;-72
2021/05/17 03:52:00;;;;;;;4.15;2.40;;;;;;;14.07;81.16;98917.64;1744609;82;21465;-72
2021/05/17 03:54:26;;;;;;;4.00;2.42;;;;;;;14.07;81.19;98913.66;1744575;81;21752;-73
2021/05/17 03:56:53;;;;;;;3.27;2.10;;;;;;;14.08;81.19;98907.84;1744464;82;21512;-72
2021/05/17 03:59:20;;;;;;;3.90;2.45;;;;;;;14.10;81.19;98914.65;1744334;82;20971;-71
2021/05/17 04:01:47;;;;;;;5.58;2.72;;;;;;;14.11;81.16;98930.08;1744244;82;21600;-71
2021/05/17 04:04:15;;;;;;;3.17;2.47;;;;;;;14.13;81.13;98943.48;1744333;82;21066;-71
2021/05/17 04:14:54;;;;;;;4.45;2.80;;;;;;;14.25;80.77;98951.34;1743662;82;21001;-72
2021/05/17 04:17:20;;;;;;;4.72;2.33;;;;;;;14.26;80.68;98934.39;1744496;82;21006;-72
2021/05/17 04:19:47;;;;;;;4.30;2.42;;;;;;;14.27;80.62;98920.10;1745275;82;21641;-72
2021/05/17 04:22:13;;;;;;;6.70;2.58;;;;;;;14.25;80.56;98908.02;1744281;82;21002;-73
2021/05/17 04:24:40;;;;;;;3.72;2.17;;;;;;;14.25;80.58;98898.22;1744131;82;21084;-73
2021/05/17 04:27:06;;;;;;;3.22;2.37;;;;;;;14.27;80.59;98904.17;1744523;81;21061;-73
2021/05/17 04:29:34;;;;;;;2.83;2.22;;;;;;;14.29;80.64;98910.15;1744361;81;20969;-72
2021/05/17 04:32:00;;;;;;;2.55;2.27;;;;;;;14.29;80.63;98895.55;1744436;82;21760;-73
2021/05/17 04:34:27;;;;;;;3.58;2.70;;;;;;;14.29;80.73;98863.67;1744340;82;21065;-72
2021/05/17 04:36:53;;;;;;;3.90;2.70;;;;;;;14.28;80.87;98832.81;1716496;82;20966;-72
2021/05/17 04:39:20;;;;;;;2.77;2.50;;;;;;;14.29;81.02;98822.51;1699193;83;21034;-73
2021/05/17 04:41:46;;;;;;;3.85;2.70;;;;;;;14.29;81.18;98813.72;1728341;82;21078;-73
2021/05/17 04:44:15;;;;;;;2.80;2.40;;;;;;;14.29;81.21;98807.08;1744603;82;21836;-73
2021/05/17 04:46:41;;;;;;;3.65;2.70;;;;;;;14.31;81.27;98800.56;1744524;82;20996;-72
2021/05/17 04:49:08;;;;;;;6.62;2.83;;;;;;;14.33;81.30;98791.91;1744613;82;21061;-73
2021/05/17 04:51:35;;;;;;;3.47;2.55;;;;;;;14.38;81.38;98774.58;1744267;82;21042;-73
2021/05/17 04:54:02;;;;;;;5.85;2.55;;;;;;;14.42;81.48;98752.79;1744568;82;21003;-73
2021/05/17 04:56:28;;;;;;;3.65;2.87;;;;;;;14.45;81.52;98735.67;1739683;82;22500;-73
2021/05/17 04:58:55;;;;;;;4.10;2.85;;;;;;;14.50;81.58;98716.03;1744443;82;21049;-73
2021/05/17 05:01:21;;;;;;;3.27;2.60;;;;;;;14.54;81.64;98710.14;1744563;82;20973;-73
2021/05/17 05:03:47;;;;;;;5.28;2.85;;;;;;;14.60;81.55;98707.25;1744589;82;21040;-73
2021/05/17 05:06:14;;;;;;;4.17;2.58;;;;;;;14.67;81.59;98705.97;1715062;82;20982;-72
2021/05/17 05:08:40;;;;;;;3.47;2.62;;;;;;;14.75;81.57;98714.65;1744533;82;22456;-72
2021/05/17 05:11:07;;;;;;;3.30;2.60;;;;;;;14.83;81.41;98722.51;1744344;82;21037;-71
2021/05/17 05:13:33;;;;;;;5.15;2.60;;;;;;;14.92;81.37;98730.36;1744584;82;20962;-72
2021/05/17 05:16:00;;;;;;;4.22;2.47;;;;;;;14.99;81.21;98739.23;1744526;82;20991;-71
2021/05/17 05:18:26;;;;;;;3.92;2.58;;;;;;;15.06;81.03;98753.42;1744622;82;21568;-72
2021/05/17 05:20:54;;;;;;;4.60;2.35;;;;;;;15.12;80.89;98772.59;1744665;81;21066;-72
2021/05/17 05:23:21;;;;;;;3.75;2.30;;;;;;;15.18;80.77;98791.28;1744561;82;20994;-72
2021/05/17 05:28:17;;;;;;;4.72;2.50;;;;;;;15.27;80.18;98818.58;1730526;82;21011;-72
2021/05/17 05:30:53;;;;;;;4.72;2.45;;;;;;;15.26;80.06;98810.28;1748662;81;21485;-72
2021/05/17 05:33:19;;;;;;;3.17;2.45;;;;;;;15.31;80.05;98800.39;1733707;82;21766;-73
2021/05/17 05:35:39;;;;;;;4.15;2.42;;;;;;;15.35;80.19;98783.05;1746634;81;21107;-73
2021/05/17 05:38:06;;;;;;;3.05;2.37;;;;;;;15.42;80.35;98777.25;1719233;83;21048;-73
2021/05/17 05:40:32;;;;;;;3.08;2.40;;;;;;;15.50;80.20;98788.28;1734018;82;21021;-73
2021/05/17 05:42:59;;;;;;;3.95;2.20;;;;;;;15.60;80.10;98800.74;1747749;81;21058;-72
2021/05/17 05:45:26;;;;;;;4.45;2.52;;;;;;;15.68;80.00;98804.13;1719216;83;21784;-72
2021/05/17 05:47:52;;;;;;;3.85;2.47;;;;;;;15.74;79.59;98818.52;1734597;82;21003;-73
2021/05/17 05:50:19;;;;;;;3.47;2.50;;;;;;;15.80;79.32;98823.05;1731915;82;21019;-73
2021/05/17 05:52:46;;;;;;;4.12;2.40;;;;;;;15.82;78.65;98801.55;1731886;82;21103;-73
2021/05/17 05:55:13;;;;;;;2.65;2.30;;;;;;;15.83;78.56;98804.56;1731853;82;21490;-73
2021/05/17 05:57:43;;;;;;;6.33;2.72;;;;;;;15.85;78.56;98814.50;1731703;82;22472;-73
2021/05/17 06:00:13;;;;;;;4.45;2.33;;;;;;;15.91;78.48;98815.03;1731764;81;21020;-73
2021/05/17 06:02:42;;;;;;;3.22;2.90;;;;;;;15.93;78.32;98799.20;1732146;82;21641;-72
2021/05/17 06:05:10;;;;;;;4.95;2.80;;;;;;;15.95;78.21;98785.17;1731865;82;21036;-72
2021/05/17 06:07:37;;;;;;;5.05;2.75;;;;;;;15.98;78.33;98732.85;1731903;82;21039;-73
2021/05/17 06:10:05;;;;;;;4.17;2.80;;;;;;;15.99;78.53;98709.20;1731907;82;21742;-72
2021/05/17 06:12:34;;;;;;;4.78;2.83;;;;;;;16.02;78.61;98695.51;1731897;82;21011;-73
2021/05/17 06:15:03;;;;;;;4.28;2.62;;;;;;;16.03;78.51;98705.14;1731773;82;20995;-73
2021/05/17 06:17:32;;;;;;;3.83;2.98;;;;;;;16.07;78.54;98710.06;1729550;81;20997;-73
2021/05/17 06:19:59;;;;;;;4.75;3.00;;;;;;;16.09;78.20;98700.84;1731955;82;21032;-73
2021/05/17 06:22:26;;;;;;;4.47;2.65;;;;;;;16.08;77.89;98694.39;1726911;82;21845;-73
2021/05/17 06:24:54;;;;;;;5.20;2.60;;;;;;;16.08;77.61;98687.73;1731855;82;20983;-72
2021/05/17 06:27:21;;;;;;;5.72;2.90;;;;;;;16.10;77.30;98712.31;1731940;82;21000;-72
2021/05/17 06:29:50;;;;;;;5.80;2.90;;;;;;;16.18;77.19;98722.81;1731847;82;21075;-72
2021/05/17 06:32:17;;;;;;;4.00;2.67;;;;;;;16.27;77.23;98741.61;1734456;82;21030;-72
2021/05/17 06:34:44;;;;;;;4.42;2.90;;;;;;;16.36;76.99;98757.73;1733639;82;21792;-72
2021/05/17 06:37:10;;;;;;;4.08;2.30;;;;;;;16.44;76.85;98780.22;1724915;82;21556;-72
2021/05/17 06:39:37;;;;;;;5.90;3.00;;;;;;;16.54;76.72;98783.34;1747835;82;21004;-72
2021/05/17 06:42:06;;;;;;;4.85;2.55;;;;;;;16.64;76.47;98824.80;1747861;82;20993;-72
2021/05/17 06:44:33;;;;;;;4.92;2.60;;;;;;;16.75;76.28;98845.59;1747918;82;21522;-72
2021/05/17 06:47:01;;;;;;;7.03;3.12;;;;;;;16.91;76.17;98876.44;1747827;82;21791;-72
2021/05/17 06:49:29;;;;;;;5.30;2.70;;;;;;;17.04;75.76;98899.97;1747827;82;21092;-72
2021/05/17 06:51:59;;;;;;;3.62;3.02;;;;;;;17.16;75.55;98909.55;1740355;82;21567;-72
2021/05/17 06:54:28;;;;;;;4.87;2.80;;;;;;;17.31;75.00;98892.88;1748691;82;21104;-72
2021/05/17 06:57:08;;;;;;;6.10;2.67;;;;;;;17.48;74.97;98898.68;1747754;82;21053;-72
2021/05/17 06:59:30;;;;;;;7.03;2.52;;;;;;;17.56;74.08;98889.13;1747845;82;21959;-72
2021/05/17 07:01:56;;;;;;;3.20;2.47;;;;;;;17.59;73.43;98873.23;1747916;82;21036;-72
2021/05/17 07:04:23;;;;;;;6.33;2.67;;;;;;;17.59;73.09;98861.22;1747825;82;20959;-72
2021/05/17 07:06:56;;;;;;;6.60;2.83;;;;;;;17.59;73.31;98880.73;1747875;80;21044;-73
2021/05/17 07:12:11;;;;;;;4.08;2.67;;;;;;;17.69;73.07;98930.58;1747730;80;21845;-73
2021/05/17 07:14:39;;;;;;;3.95;2.77;;;;;;;17.68;73.01;98942.27;1739946;82;21068;-72
2021/05/17 07:17:06;;;;;;;5.65;2.85;;;;;;;17.61;72.37;98943.27;1718312;83;21586;-73
2021/05/17 07:19:34;;;;;;;4.85;2.80;;;;;;;17.50;72.80;98955.36;1717992;82;21013;-72
2021/05/17 07:24:46;;;;;;;6.42;3.40;;;;;;;17.31;73.45;99019.65;1721533;82;21800;-73
2021/05/17 07:27:12;;;;;;;6.05;3.65;;;;;;;17.17;73.61;99016.06;1747886;82;21511;-72
2021/05/17 07:29:41;;;;;;;10.80;3.20;;;;;;;17.06;73.80;99017.14;1747954;82;20969;-73
2021/05/17 07:32:09;;;;;;;4.03;3.12;;;;;;;16.95;74.07;99009.18;1726708;82;21061;-73
2021/05/17 07:34:36;;;;;;;5.33;2.92;;;;;;;16.86;74.44;99003.17;1695330;84;21070;-73
2021/05/17 07:37:04;;;;;;;7.10;3.22;;;;;;;16.77;74.40;98998.19;1702463;84;21717;-72
2021/05/17 07:39:31;;;;;;;3.15;2.60;;;;;;;16.68;74.40;99016.66;1702357;84;21497;-72
2021/05/17 07:41:57;;;;;;;6.80;2.92;;;;;;;16.61;74.56;99039.28;1702396;83;21069;-72
2021/05/17 07:44:24;;;;;;;4.75;2.55;;;;;;;16.53;74.78;99043.41;1702250;84;21009;-72
2021/05/17 07:46:50;;;;;;;2.98;2.50;;;;;;;16.49;74.92;99057.61;1674204;85;21072;-72
2021/05/17 07:49:23;;;;;;;5.53;2.55;;;;;;;16.47;74.90;99095.63;1702284;84;21786;-72
2021/05/17 07:51:47;;;;;;;3.98;2.58;;;;;;;16.41;74.79;99125.73;1700743;84;21542;-71
2021/05/17 07:54:15;;;;;;;7.65;3.55;;;;;;;16.37;74.80;99124.44;1705507;84;21008;-72
2021/05/17 07:56:42;;;;;;;9.00;3.20;;;;;;;16.35;74.92;99122.98;1705345;84;21562;-72
2021/05/17 07:59:09;;;;;;;8.03;3.58;;;;;;;16.33;75.18;99123.69;1747753;82;21097;-72
2021/05/17 08:01:35;;;;;;;4.25;3.00;;;;;;;16.30;75.52;99135.53;1702415;84;21781;-71
2021/05/17 08:04:02;;;;;;;5.47;2.90;;;;;;;16.28;75.90;99144.22;1702566;83;21034;-72
2021/05/17 08:06:29;;;;;;;7.78;2.95;;;;;;;16.22;76.21;99151.66;1710853;83;21050;-72
2021/05/17 08:08:57;;;;;;;7.67;3.08;;;;;;;16.16;76.46;99116.44;1699308;84;21073;-72
2021/05/17 08:11:23;;;;;;;7.83;3.80;;;;;;;16.08;76.99;99005.50;1699395;84;21516;-72
2021/05/17 08:13:49;;;;;;;7.00;4.12;;;;;;;16.00;77.50;98998.45;1746971;81;21791;-72
2021/05/17 08:16:16;;;;;;;10.85;4.12;;;;;;;15.92;78.03;98913.39;1752929;81;21142;-72
2021/05/17 08:18:43;;;;;;;5.78;3.42;;;;;;;15.78;78.71;98784.34;1746443;82;21444;-72
2021/05/17 08:21:10;;;;;;;5.80;3.72;;;;;;;15.61;79.64;98719.41;1747264;81;21010;-72
2021/05/17 08:23:37;;;;;;;3.95;3.12;;;;;;;15.43;80.29;98730.50;1748098;82;21077;-72
2021/05/17 08:26:07;;;;;;;5.45;3.55;;;;;;;15.29;81.08;98691.52;1702484;84;21778;-72
2021/05/17 08:28:35;;;;;;;6.58;3.62;;;;;;;15.17;81.61;98630.58;1702403;83;21569;-71
2021/05/17 08:31:03;;;;;;;6.62;3.80;;;;;;;15.09;81.94;98612.10;1704934;82;20970;-72
2021/05/17 08:33:30;;;;;;;6.22;3.75;;;;;;;15.03;82.25;98649.58;1735308;82;20997;-71
2021/05/17 08:35:57;;;;;;;5.25;3.80;;;;;;;15.02;82.47;98682.50;1721270;82;21555;-72
2021/05/17 08:38:23;;;;;;;4.80;3.40;;;;;;;15.00;82.78;98708.97;1681809;84;22250;-72
2021/05/17 08:40:51;;;;;;;8.20;3.98;;;;;;;15.00;82.80;98722.27;1706029;84;20974;-72
2021/05/17 08:43:18;;;;;;;6.70;3.83;;;;;;;15.03;82.86;98753.78;1705898;83;21054;-72
2021/05/17 08:45:46;;;;;;;4.78;3.75;;;;;;;15.07;82.86;98801.09;1705895;83;21069;-73
2021/05/17 08:48:13;;;;;;;5.67;4.20;;;;;;;15.15;82.79;98833.36;1706152;84;21001;-72
2021/05/17 08:50:40;;;;;;;5.53;4.10;;;;;;;15.22;82.80;98863.52;1720373;82;21680;-72
2021/05/17 08:53:06;;;;;;;6.33;4.12;;;;;;;15.30;82.80;98863.91;1735258;82;21616;-72
2021/05/17 08:55:33;;;;;;;20.50;17.87;;;;;;;15.38;82.79;98863.80;1735356;82;21149;-72
2021/05/17 08:57:59;;;;;;;7.83;6.60;;;;;;;15.47;82.74;98845.38;1735335;82;21034;-72
2021/05/17 09:00:28;;;;;;;9.38;4.00;;;;;;;15.61;82.70;98823.71;1710859;82;21022;-72
2021/05/17 09:02:55;;;;;;;9.55;4.33;;;;;;;15.73;82.57;98810.22;1735313;82;21731;-72
2021/05/17 09:05:32;;;;;;;7.58;3.75;;;;;;;15.85;82.48;98820.64;1735103;82;21464;-72
2021/05/17 09:08:03;;;;;;;5.47;4.10;;;;;;;15.97;82.19;98835.58;1734881;81;21019;-72
2021/05/17 09:10:35;;;;;;;6.22;4.42;;;;;;;16.10;81.98;98841.49;1735376;82;21497;-73
2021/05/17 09:13:17;;;;;;;5.67;3.92;;;;;;;16.19;81.82;98842.48;1735385;82;20998;-72
2021/05/17 09:15:51;;;;;;;5.28;4.28;;;;;;;16.34;81.69;98852.22;1723526;81;21788;-71
2021/05/17 09:18:28;;;;;;;6.67;3.92;;;;;;;16.47;81.36;98860.28;1688461;84;21052;-71
2021/05/17 09:20:53;;;;;;;5.28;3.75;;;;;;;16.58;81.14;98865.05;1670777;85;21068;-71
2021/05/17 09:23:30;;;;;;;4.67;3.65;;;;;;;16.69;81.01;98863.70;1671214;85;21107;-71
2021/05/17 09:26:07;;;;;;;4.80;3.83;;;;;;;16.78;80.73;98870.52;1714084;82;21029;-72
2021/05/17 09:28:38;;;;;;;5.60;3.60;;;;;;;16.85;79.94;98880.70;1707434;83;21763;-72
2021/05/17 09:31:11;;;;;;;3.98;3.40;;;;;;;16.92;79.37;98878.89;1699593;84;21050;-72
2021/05/17 09:33:48;;;;;;;5.83;4.17;;;;;;;16.98;78.74;98870.08;1702500;84;21547;-72
2021/05/17 09:36:41;;;;;;;4.60;4.20;;;;;;;17.05;78.28;98860.27;1672447;85;21546;-71
2021/05/17 09:39:10;;;;;;;5.42;4.08;;;;;;;17.19;78.33;98852.32;1702542;84;21062;-73
2021/05/17 09:41:48;;;;;;;6.08;4.05;;;;;;;17.38;77.77;98862.22;1702312;84;21789;-72
2021/05/17 09:44:29;;;;;;;5.92;4.25;;;;;;;17.51;77.30;98862.23;1702429;84;21533;-73
2021/05/17 09:47:20;;;;;;;6.30;4.10;;;;;;;17.67;76.84;98870.38;1697850;84;21132;-73
2021/05/17 09:49:50;;;;;;;4.30;3.60;;;;;;;17.74;75.87;98872.55;1748052;82;21041;-73
2021/05/17 09:52:28;;;;;;;5.65;3.87;;;;;;;17.92;75.66;98873.27;1747466;82;21061;-73
2021/05/17 09:55:02;;;;;;;6.28;4.10;;;;;;;18.04;75.19;98870.28;1702459;84;21706;-73
2021/05/17 09:57:48;;;;;;;8.08;4.10;;;;;;;18.19;74.77;98868.75;1674121;85;21109;-73
2021/05/17 10:00:32;;;;;;;5.10;4.12;;;;;;;18.30;74.11;98868.92;1674166;85;21094;-72
2021/05/17 10:02:58;;;;;;;6.85;4.10;;;;;;;18.37;73.19;98855.56;1673945;85;21028;-73
2021/05/17 10:05:35;;;;;;;5.22;4.05;;;;;;;18.43;73.34;98857.89;1700393;84;20976;-73
2021/05/17 10:08:12;;;;;;;6.20;4.35;;;;;;;18.58;72.86;98851.80;1702414;84;22370;-73
2021/05/17 10:10:39;;;;;;;6.62;3.90;;;;;;;18.77;72.33;98849.61;1702539;84;21674;-73
2021/05/17 10:13:05;;;;;;;6.03;4.25;;;;;;;18.98;72.09;98843.65;1699784;82;21036;-73
2021/05/17 10:15:34;;;;;;;6.28;4.42;;;;;;;19.25;71.97;98832.29;1699741;84;21530;-73
2021/05/17 10:18:00;;;;;;;9.18;3.80;;;;;;;19.52;71.51;98831.09;1702413;84;20980;-73
2021/05/17 10:20:29;;;;;;;5.15;3.87;;;;;;;19.67;70.92;98838.82;1702499;84;21600;-73
2021/05/17 10:22:57;;;;;;;7.22;4.00;;;;;;;19.75;70.13;98846.59;1702226;84;21094;-73
2021/05/17 10:25:26;;;;;;;4.92;3.85;;;;;;;19.93;69.44;98839.14;1702394;84;21008;-73
2021/05/17 10:27:55;;;;;;;3.75;3.17;;;;;;;20.09;68.08;98837.25;1702321;84;21039;-72
2021/05/17 10:30:31;;;;;;;6.40;3.60;;;;;;;20.25;67.29;98835.31;1702377;84;20992;-73
2021/05/17 10:33:01;;;;;;;7.10;3.62;;;;;;;20.48;67.36;98838.73;1727488;82;21831;-72
2021/05/17 10:35:32;;;;;;;5.12;3.30;;;;;;;20.71;66.46;98841.25;1744398;82;21047;-73
2021/05/17 10:38:43;;;;;;;3.65;3.15;;;;;;;20.81;66.12;98847.73;1744597;82;21010;-73
2021/05/17 10:46:52;;;;;;;7.33;4.20;;;;;;;20.99;64.73;98863.00;1744422;82;21819;-72
2021/05/17 10:49:33;;;;;;;5.03;3.75;;;;;;;21.04;64.20;98862.34;1707729;82;21506;-72
2021/05/17 10:52:11;;;;;;;4.67;3.45;;;;;;;21.22;63.67;98862.80;1738568;81;21042;-72
2021/05/17 10:54:40;;;;;;;5.08;3.15;;;;;;;21.35;62.87;98858.64;1693905;84;21082;-72
2021/05/17 10:57:27;;;;;;;3.87;3.10;;;;;;;21.51;62.84;98856.63;1693883;84;21046;-72
2021/05/17 11:02:42;;;;;;;4.58;3.00;;;;;;;21.97;62.26;98850.52;1701284;82;21054;-72
2021/05/17 11:05:20;;;;;;;4.28;2.67;;;;;;;22.28;61.30;98856.63;1744430;82;21540;-72
2021/05/17 11:08:00;;;;;;;6.40;2.80;;;;;;;22.48;60.51;98855.73;1746616;82;21097;-72
2021/05/17 11:10:37;;;;;;;4.58;2.72;;;;;;;22.76;59.75;98854.17;1730619;82;21047;-72
2021/05/17 11:13:23;;;;;;;5.70;3.20;;;;;;;23.01;57.68;98845.84;1746908;81;21788;-72
2021/05/17 11:15:59;;;;;;;4.80;2.60;;;;;;;23.13;56.61;98847.95;1735748;82;21077;-72
2021/05/17 11:18:39;;;;;;;4.80;2.77;;;;;;;23.05;56.58;98851.84;1748779;82;21078;-72
2021/05/17 11:21:21;;;;;;;3.20;2.30;;;;;;;22.99;56.67;98858.73;1735098;82;21061;-72
2021/05/17 11:24:08;;;;;;;4.30;2.80;;;;;;;22.83;55.90;98861.06;1724797;83;21015;-72
2021/05/17 11:26:54;;;;;;;3.37;2.45;;;;;;;22.68;56.70;98871.53;1746983;82;21786;-72
2021/05/17 11:29:32;;;;;;;5.33;2.70;;;;;;;22.52;57.01;98869.56;1746704;82;20991;-73
2021/05/17 11:32:09;;;;;;;5.25;2.98;;;;;;;22.37;57.48;98863.83;1728691;82;21000;-72
2021/05/17 11:34:36;;;;;;;5.05;2.90;;;;;;;22.33;58.58;98869.40;1744576;82;21108;-72
2021/05/17 11:37:11;;;;;;;5.60;3.47;;;;;;;22.37;58.40;98870.55;1694291;82;20989;-73
2021/05/17 11:39:39;;;;;;;4.15;3.62;;;;;;;22.36;59.10;98874.30;1747925;82;21777;-73
2021/05/17 11:42:12;;;;;;;5.45;3.60;;;;;;;22.36;60.27;98878.33;1734912;82;21483;-73
2021/05/17 11:45:29;;;;;;;5.58;3.72;;;;;;;22.36;60.61;98874.30;1750513;82;20966;-73
2021/05/17 11:47:15;;;;;;;5.97;3.70;;;;;;;22.27;60.40;98883.24;1742630;82;21493;-73
2021/05/17 11:49:43;;;;;;;5.83;3.95;;;;;;;22.20;60.92;98882.03;1716555;82;21003;-73
2021/05/17 11:52:13;;;;;;;7.55;4.40;;;;;;;22.19;60.93;98883.06;1747841;82;21799;-73
2021/05/17 11:54:50;;;;;;;5.53;4.70;;;;;;;22.17;60.93;98882.48;1748002;81;21049;-73
2021/05/17 11:57:20;;;;;;;7.28;4.95;;;;;;;22.06;61.23;98874.38;1748920;82;21057;-73
2021/05/17 11:59:49;;;;;;;6.58;4.55;;;;;;;21.93;61.21;98878.11;1732787;82;21084;-72
2021/05/17 12:02:15;;;;;;;8.05;4.58;;;;;;;21.88;61.83;98878.80;1732829;82;21507;-73
2021/05/17 12:04:42;;;;;;;5.03;4.45;;;;;;;21.90;61.99;98879.90;1750829;81;21725;-73
2021/05/17 12:07:12;;;;;;;7.28;4.95;;;;;;;22.00;62.11;98881.49;1724604;82;21133;-73
2021/05/17 12:09:53;;;;;;;4.90;4.25;;;;;;;21.97;61.19;98874.72;1748019;80;21017;-73
2021/05/17 12:12:28;;;;;;;8.43;4.62;;;;;;;21.92;61.28;98875.14;1747976;82;21073;-73